Time;durP1;ratioP1;P1;durP2;ratioP2;P2;SDS_P1;SDS_P2;PMS_P1;PMS_P2;Temp;Humidity;BMP_temperature;BMP_pressure;BME280_temperature;BME280_humidity;BME280_pressure;Samples;Min_cycle;Max_cycle;Signal;HPM_P1;HPM_P2
2024/04/15 00:00:20;;;;;;;4.40;2.40;;;;;;;15.34;63.66;99092.06;5414553;26;20004;-92
2024/04/15 00:02:46;;;;;;;4.82;2.53;;;;;;;15.13;63.36;99082.22;5417363;26;20047;-93
2024/04/15 00:05:12;;;;;;;6.70;2.65;;;;;;;14.96;65.22;99073.09;5419880;26;20004;-92
2024/04/15 00:07:38;;;;;;;4.22;2.30;;;;;;;14.62;65.09;99011.09;5424616;26;20039;-93
2024/04/15 00:10:04;;;;;;;3.45;2.17;;;;;;;15.38;64.73;99130.34;5423750;26;20456;-92
2024/04/15 00:12:30;;;;;;;3.92;2.75;;;;;;;15.06;63.61;99078.91;5414051;26;20011;-92
2024/04/15 00:14:56;;;;;;;4.20;2.70;;;;;;;14.94;63.26;99050.84;5422951;26;20014;-93
2024/04/15 00:17:25;;;;;;;3.60;2.10;;;;;;;14.98;63.88;99078.34;5413646;26;20012;-93
2024/04/15 00:19:51;;;;;;;5.32;2.40;;;;;;;14.54;64.96;99035.44;5419310;26;20043;-92
2024/04/15 00:22:17;;;;;;;6.90;2.75;;;;;;;14.31;66.48;99033.66;5419722;26;20014;-93
2024/04/15 00:24:43;;;;;;;4.35;2.53;;;;;;;15.10;66.91;99125.22;5422049;26;20007;-92
2024/04/15 00:27:09;;;;;;;6.97;2.70;;;;;;;14.90;65.42;99132.22;5416425;26;20357;-92
2024/04/15 00:29:35;;;;;;;3.53;2.28;;;;;;;15.11;66.43;99126.94;5420138;26;20097;-93
2024/04/15 00:32:03;;;;;;;5.63;2.60;;;;;;;15.05;65.93;99103.09;5413125;26;20015;-92
2024/04/15 00:34:32;;;;;;;6.93;2.78;;;;;;;15.20;66.56;99121.22;5419516;26;20008;-93
2024/04/15 00:36:58;;;;;;;3.75;2.67;;;;;;;15.11;67.98;99114.41;5422540;26;20035;-92
2024/04/15 00:39:26;;;;;;;8.32;3.28;;;;;;;14.99;67.47;99102.41;5422043;26;20015;-91
2024/04/15 00:41:52;;;;;;;4.72;2.40;;;;;;;15.13;66.49;99133.13;5422387;26;20019;-93
2024/04/15 00:44:18;;;;;;;5.47;3.05;;;;;;;14.98;67.41;99127.47;5422758;26;20003;-93
2024/04/15 00:46:44;;;;;;;6.30;2.70;;;;;;;14.67;67.97;99082.25;5413033;26;20084;-92
2024/04/15 00:49:13;;;;;;;5.22;2.38;;;;;;;14.93;68.24;99137.44;5416130;26;20022;-91
2024/04/15 00:51:42;;;;;;;4.55;2.58;;;;;;;14.67;68.59;99076.88;5421702;26;20014;-92
2024/04/15 00:54:10;;;;;;;4.45;2.58;;;;;;;15.00;67.69;99135.41;5418706;26;20022;-94
2024/04/15 00:56:36;;;;;;;4.63;2.47;;;;;;;15.05;67.48;99130.75;5419140;26;20007;-93
2024/04/15 00:59:02;;;;;;;3.22;2.35;;;;;;;14.62;67.39;99048.56;5416291;26;20018;-93
2024/04/15 01:01:29;;;;;;;5.38;3.00;;;;;;;14.32;67.82;98993.47;5417378;26;20007;-90
2024/04/15 01:03:56;;;;;;;5.43;2.92;;;;;;;14.61;67.89;99028.94;5429525;26;20003;-91
2024/04/15 01:06:22;;;;;;;5.10;2.75;;;;;;;14.80;68.59;99053.19;5423332;26;20072;-91
2024/04/15 01:08:51;;;;;;;7.53;3.13;;;;;;;15.16;70.15;99130.34;5423351;26;20015;-93
2024/04/15 01:11:17;;;;;;;4.20;2.72;;;;;;;14.88;70.66;99091.25;5416216;26;20022;-93
2024/04/15 01:13:43;;;;;;;5.63;3.10;;;;;;;14.94;71.99;99127.59;5416441;26;20008;-92
2024/04/15 01:16:09;;;;;;;5.15;2.80;;;;;;;14.24;72.30;99014.28;5413028;26;20521;-93
2024/04/15 01:18:35;;;;;;;5.55;3.03;;;;;;;14.36;73.03;99045.06;5427656;26;20004;-93
2024/04/15 01:21:01;;;;;;;4.65;3.05;;;;;;;14.38;72.74;99040.53;5419049;26;20011;-92
2024/04/15 01:23:29;;;;;;;5.47;2.85;;;;;;;14.80;73.06;99112.09;5420414;26;20007;-92
2024/04/15 01:25:58;;;;;;;4.97;3.08;;;;;;;14.44;74.59;99093.78;5418739;26;20015;-92
2024/04/15 01:28:25;;;;;;;7.35;3.40;;;;;;;14.17;75.46;99109.06;5422495;26;20031;-93
2024/04/15 01:30:51;;;;;;;5.50;3.13;;;;;;;14.32;75.00;99104.97;5416400;26;20004;-92
2024/04/15 01:33:17;;;;;;;5.03;2.97;;;;;;;13.60;73.65;98971.22;5421301;26;20007;-93
2024/04/15 01:35:43;;;;;;;5.68;3.17;;;;;;;13.89;74.08;99027.16;5422462;26;20010;-93
2024/04/15 01:38:09;;;;;;;4.20;2.65;;;;;;;14.39;74.54;99109.16;5418352;26;20008;-92
2024/04/15 01:40:35;;;;;;;6.05;2.92;;;;;;;14.09;73.24;99063.88;5416413;26;20022;-92
2024/04/15 01:43:04;;;;;;;6.22;2.72;;;;;;;13.85;73.93;99036.22;5418205;26;20015;-94
2024/04/15 01:45:30;;;;;;;6.22;3.00;;;;;;;13.74;74.43;99011.69;5412902;26;20022;-93
2024/04/15 01:47:56;;;;;;;5.90;3.10;;;;;;;13.19;75.66;98979.75;5420957;26;20008;-92
2024/04/15 01:50:22;;;;;;;4.07;3.08;;;;;;;13.27;75.88;98975.03;5415437;26;20022;-93
2024/04/15 01:52:48;;;;;;;6.45;3.13;;;;;;;14.06;75.20;99104.09;5420755;26;20077;-92
2024/04/15 01:55:14;;;;;;;4.55;3.00;;;;;;;13.49;76.94;99022.41;5419852;26;20043;-93
2024/04/15 01:57:42;;;;;;;5.82;2.88;;;;;;;13.52;78.34;99019.59;5407604;26;20083;-92
2024/04/15 02:00:12;;;;;;;7.18;2.80;;;;;;;13.71;78.92;99100.88;5402283;26;20007;-92
2024/04/15 02:02:38;;;;;;;5.15;2.90;;;;;;;12.89;79.05;98954.97;5400940;26;20007;-92
2024/04/15 02:05:07;;;;;;;5.57;3.13;;;;;;;13.82;78.12;99087.13;5404404;26;20048;-92
2024/04/15 02:07:34;;;;;;;4.30;2.70;;;;;;;13.76;80.04;99072.19;5402283;26;20007;-93
2024/04/15 02:10:00;;;;;;;5.78;3.10;;;;;;;13.87;79.55;99085.16;5412794;26;20091;-93
2024/04/15 02:12:26;;;;;;;6.22;3.38;;;;;;;13.86;79.44;99077.22;5410221;26;20083;-92
2024/04/15 02:14:52;;;;;;;6.20;3.42;;;;;;;13.47;80.21;99025.09;5409850;26;20010;-92
2024/04/15 02:17:21;;;;;;;6.30;3.45;;;;;;;13.58;82.17;99075.50;5399381;26;20035;-93
2024/04/15 02:19:47;;;;;;;5.65;3.47;;;;;;;13.26;81.54;99002.63;5412089;26;20018;-93
2024/04/15 02:22:13;;;;;;;5.35;2.92;;;;;;;13.29;84.18;99063.13;5401486;26;20008;-93
2024/04/15 02:24:39;;;;;;;5.53;3.50;;;;;;;13.12;86.21;99064.53;5398448;26;20011;-92
2024/04/15 02:27:05;;;;;;;7.88;3.42;;;;;;;12.82;85.18;98990.78;5405486;26;20011;-92
2024/04/15 02:29:31;;;;;;;6.68;4.15;;;;;;;12.68;85.69;98964.53;5406241;26;20011;-93
2024/04/15 02:31:57;;;;;;;8.45;3.95;;;;;;;12.32;88.48;98972.81;5409441;26;20015;-93
2024/04/15 02:34:26;;;;;;;5.80;3.90;;;;;;;12.17;89.57;98943.94;5412129;26;20035;-93
2024/04/15 02:36:52;;;;;;;8.27;3.70;;;;;;;12.85;88.39;99066.28;5407093;26;20022;-93
2024/04/15 02:39:18;;;;;;;4.80;3.38;;;;;;;12.86;88.86;99065.38;5404603;26;20342;-92
2024/04/15 02:41:44;;;;;;;5.28;3.42;;;;;;;12.78;87.20;99008.69;5404577;26;20003;-91
2024/04/15 02:44:10;;;;;;;7.07;3.97;;;;;;;12.81;86.85;99013.91;5400084;26;20003;-94
2024/04/15 02:46:36;;;;;;;8.90;4.40;;;;;;;12.60;89.04;99026.16;5402114;26;20034;-93
2024/04/15 02:49:02;;;;;;;7.57;3.75;;;;;;;12.48;88.98;99006.06;5399141;26;20022;-92
2024/04/15 02:51:31;;;;;;;5.18;3.20;;;;;;;12.36;89.49;98976.22;5414605;26;20354;-93
2024/04/15 02:53:57;;;;;;;7.38;3.58;;;;;;;12.74;89.13;99021.25;5402148;26;20006;-92
2024/04/15 02:56:23;;;;;;;7.22;3.67;;;;;;;12.54;87.64;98957.00;5409701;26;20021;-94
2024/04/15 02:58:49;;;;;;;6.22;3.72;;;;;;;12.54;86.83;98949.84;5420444;26;20052;-91
2024/04/15 03:01:14;;;;;;;5.18;3.45;;;;;;;13.07;87.78;99039.75;5403607;26;20023;-92
2024/04/15 03:03:40;;;;;;;5.30;3.20;;;;;;;13.09;87.42;99032.56;5396318;26;20008;-92
2024/04/15 03:06:06;;;;;;;6.00;3.35;;;;;;;12.79;86.75;98982.88;5417723;26;20003;-93
2024/04/15 03:08:35;;;;;;;5.70;2.97;;;;;;;13.14;86.51;99046.66;5406458;26;20002;-91
2024/04/15 03:11:08;;;;;;;6.32;3.25;;;;;;;13.03;85.36;99011.41;5403523;26;20007;-92
2024/04/15 03:13:34;;;;;;;5.15;3.22;;;;;;;12.88;86.72;99002.16;5403973;26;20018;-94
2024/04/15 03:16:00;;;;;;;7.63;3.67;;;;;;;13.20;85.69;99028.69;5404860;26;20021;-94
2024/04/15 03:18:26;;;;;;;6.40;3.25;;;;;;;12.60;86.64;98942.56;5400951;26;20007;-92
2024/04/15 03:20:52;;;;;;;4.85;3.08;;;;;;;12.98;86.92;99044.53;5406863;26;20007;-92
2024/04/15 03:23:18;;;;;;;7.45;3.15;;;;;;;12.82;88.54;99037.03;5387698;26;20001;-93
2024/04/15 03:25:46;;;;;;;6.05;3.40;;;;;;;12.37;90.11;99002.00;5405549;26;20012;-92
2024/04/15 03:28:12;;;;;;;9.50;3.80;;;;;;;12.36;90.75;99024.22;5406111;26;20022;-92
2024/04/15 03:30:38;;;;;;;5.05;2.90;;;;;;;12.20;90.21;98968.69;5396221;26;20011;-93
2024/04/15 03:33:04;;;;;;;9.98;3.13;;;;;;;12.08;88.88;98931.78;5401327;26;20003;-92
2024/04/15 03:35:31;;;;;;;7.18;3.45;;;;;;;12.48;88.31;99000.72;5406486;26;20044;-92
2024/04/15 03:37:57;;;;;;;5.18;3.28;;;;;;;12.37;90.01;98991.31;5407120;26;20008;-91
2024/04/15 03:40:22;;;;;;;5.70;3.08;;;;;;;12.05;88.85;98932.72;5403189;26;20065;-92
2024/04/15 03:42:51;;;;;;;8.82;3.72;;;;;;;12.37;89.10;98984.19;5404641;26;19999;-91
2024/04/15 03:45:17;;;;;;;5.50;3.15;;;;;;;12.05;88.59;98945.19;5400308;26;20071;-92
2024/04/15 03:47:43;;;;;;;6.85;3.67;;;;;;;11.49;91.17;98885.53;5404438;26;20007;-92
2024/04/15 03:50:09;;;;;;;7.25;3.53;;;;;;;11.68;92.99;98947.09;5407380;26;20019;-91
2024/04/15 03:52:35;;;;;;;9.05;3.60;;;;;;;11.84;92.92;98974.19;5406892;26;20011;-92
2024/04/15 03:55:01;;;;;;;6.55;3.75;;;;;;;11.78;96.78;99002.81;5401792;26;20458;-92
2024/04/15 03:57:27;;;;;;;7.38;4.30;;;;;;;11.26;96.28;98934.09;5412205;26;20014;-93
2024/04/15 03:59:56;;;;;;;9.23;4.07;;;;;;;11.52;96.58;98980.44;5406140;26;20003;-91
2024/04/15 04:02:22;;;;;;;8.80;4.60;;;;;;;11.71;98.47;99032.28;5404144;26;20030;-92
2024/04/15 04:04:47;;;;;;;5.60;3.65;;;;;;;11.72;96.03;98971.88;5404718;26;20075;-92
2024/04/15 04:07:13;;;;;;;7.85;4.13;;;;;;;11.41;94.76;98887.53;5406873;26;20004;-91
2024/04/15 04:09:39;;;;;;;7.18;4.10;;;;;;;12.15;95.60;99018.63;5405149;26;19999;-92
2024/04/15 04:12:05;;;;;;;8.52;3.90;;;;;;;11.60;95.55;98901.19;5409496;26;20000;-91
2024/04/15 04:14:31;;;;;;;7.28;4.40;;;;;;;11.90;98.50;98999.81;5410380;26;19999;-92
2024/04/15 04:17:00;;;;;;;7.25;3.80;;;;;;;11.70;98.22;98979.91;5405438;26;22392;-93
2024/04/15 04:19:26;;;;;;;6.93;4.22;;;;;;;11.76;98.09;98986.00;5405787;26;19999;-93
2024/04/15 04:21:52;;;;;;;8.65;3.95;;;;;;;11.69;96.74;98972.84;5415511;26;20095;-90
2024/04/15 04:24:18;;;;;;;9.90;3.55;;;;;;;11.84;94.55;98954.66;5404220;26;20006;-94
2024/04/15 04:26:44;;;;;;;6.97;3.25;;;;;;;11.18;96.08;98920.09;5406230;26;20018;-92
2024/04/15 04:29:10;;;;;;;6.82;3.65;;;;;;;12.03;95.38;98998.53;5408201;26;20007;-92
2024/04/15 04:31:37;;;;;;;4.68;2.88;;;;;;;11.83;94.44;98963.56;5395663;26;20030;-93
2024/04/15 04:34:06;;;;;;;6.65;2.72;;;;;;;12.07;94.79;98989.53;5405485;26;19998;-91
2024/04/15 04:36:32;;;;;;;6.50;3.22;;;;;;;11.64;94.72;98923.25;5406414;26;19998;-93
2024/04/15 04:38:58;;;;;;;6.75;3.22;;;;;;;11.90;94.34;98938.50;5410978;26;20012;-93
2024/04/15 04:41:24;;;;;;;6.70;3.20;;;;;;;12.21;94.33;98996.22;5398328;26;20018;-92
2024/04/15 04:43:50;;;;;;;7.80;3.97;;;;;;;12.37;93.32;98996.66;5401519;26;20454;-93
2024/04/15 04:46:17;;;;;;;4.75;3.28;;;;;;;11.53;92.77;98854.31;5409055;26;20007;-93
2024/04/15 04:48:43;;;;;;;5.45;2.92;;;;;;;11.91;92.29;98911.84;5408388;26;20034;-92
2024/04/15 04:51:11;;;;;;;4.50;2.90;;;;;;;12.45;91.07;99003.50;5408514;26;20011;-92
2024/04/15 04:53:38;;;;;;;5.50;3.50;;;;;;;12.06;93.39;98961.13;5405218;26;20003;-92
2024/04/15 04:56:08;;;;;;;6.70;3.38;;;;;;;12.23;92.83;98997.97;5400713;26;20014;-92
2024/04/15 04:58:34;;;;;;;7.22;3.72;;;;;;;11.98;92.99;98957.81;5421735;26;20057;-92
2024/04/15 05:01:07;;;;;;;7.28;3.38;;;;;;;12.06;94.74;98987.78;5416815;26;20068;-92
2024/04/15 05:03:33;;;;;;;6.32;3.78;;;;;;;11.80;93.68;98915.72;5417356;26;20014;-94
2024/04/15 05:06:03;;;;;;;8.50;4.22;;;;;;;12.15;94.71;98967.13;5425396;26;19999;-95
2024/04/15 05:08:31;;;;;;;6.53;3.83;;;;;;;12.50;92.30;98996.22;5415277;26;20455;-92
2024/04/15 05:10:57;;;;;;;9.30;4.35;;;;;;;12.07;93.25;98914.88;5414229;26;20081;-91
2024/04/15 05:13:23;;;;;;;8.93;3.92;;;;;;;12.13;94.93;98929.84;5418857;26;21635;-92
2024/04/15 05:15:49;;;;;;;7.82;4.10;;;;;;;12.45;93.88;98962.63;5412026;26;20011;-92
2024/04/15 05:18:15;;;;;;;9.80;4.18;;;;;;;12.46;94.11;98959.91;5418421;26;20003;-93
2024/04/15 05:20:41;;;;;;;6.60;3.47;;;;;;;12.25;93.98;98918.81;5416135;26;20047;-92
2024/04/15 05:23:07;;;;;;;6.30;3.47;;;;;;;12.75;94.40;98976.75;5412217;26;20352;-94
2024/04/15 05:25:36;;;;;;;10.98;4.47;;;;;;;12.82;94.18;98986.31;5422862;26;20010;-91
2024/04/15 05:28:04;;;;;;;12.95;3.95;;;;;;;12.94;94.14;98985.91;5422759;26;20043;-96
2024/04/15 05:30:42;;;;;;;8.30;4.15;;;;;;;12.57;93.40;98908.88;5435915;26;20451;-95
2024/04/15 05:33:09;;;;;;;6.05;3.95;;;;;;;12.59;92.33;98888.34;5418759;26;20003;-92
2024/04/15 05:35:35;;;;;;;9.68;3.80;;;;;;;13.43;92.24;98987.88;5419762;26;20035;-94
2024/04/15 05:38:02;;;;;;;10.38;4.32;;;;;;;13.53;90.85;98997.28;5425804;26;20147;-96
2024/04/15 05:40:30;;;;;;;7.53;3.22;;;;;;;12.97;89.85;98880.84;5422946;26;20398;-92
2024/04/15 05:42:59;;;;;;;6.30;3.75;;;;;;;13.86;87.08;98981.84;5419363;26;20459;-94
2024/04/15 05:45:25;;;;;;;8.73;4.15;;;;;;;14.17;85.77;99000.28;5415387;26;20039;-93
2024/04/15 05:47:51;;;;;;;6.68;3.78;;;;;;;13.97;83.75;98941.34;5431348;26;20339;-94
2024/04/15 05:50:16;;;;;;;6.68;3.40;;;;;;;14.19;82.67;98933.38;5420407;26;20076;-95
2024/04/15 05:52:43;;;;;;;7.82;4.65;;;;;;;14.40;81.70;98937.00;5421147;26;20008;-94
2024/04/15 05:55:08;;;;;;;10.55;4.47;;;;;;;14.43;80.76;98930.66;5422223;26;20012;-96
2024/04/15 05:57:34;;;;;;;11.77;4.78;;;;;;;14.98;80.66;99016.75;5408075;26;20002;-96
2024/04/15 06:00:05;;;;;;;7.45;4.45;;;;;;;14.84;79.24;98969.13;5411730;26;20558;-95
2024/04/15 06:02:31;;;;;;;11.23;4.30;;;;;;;15.10;79.71;99007.38;5407309;26;20006;-95
2024/04/15 06:04:57;;;;;;;7.82;4.10;;;;;;;14.94;79.01;98966.94;5412085;26;20443;-94
2024/04/15 06:07:23;;;;;;;12.52;4.25;;;;;;;15.23;78.61;99008.59;5407104;26;20031;-94
2024/04/15 06:09:50;;;;;;;8.57;3.70;;;;;;;14.76;77.85;98898.97;5409416;26;20007;-94
2024/04/15 06:12:16;;;;;;;8.85;3.92;;;;;;;15.35;77.60;99002.72;5405824;26;20003;-94
2024/04/15 06:14:42;;;;;;;16.25;4.15;;;;;;;15.22;77.18;98949.72;5411819;26;20003;-94
2024/04/15 06:17:11;;;;;;;7.72;3.85;;;;;;;15.54;77.40;99002.78;5415204;26;20008;-95
2024/04/15 06:19:37;;;;;;;7.10;3.45;;;;;;;15.55;76.28;99003.66;5410488;26;20080;-94
2024/04/15 06:22:03;;;;;;;6.90;4.03;;;;;;;15.70;76.12;98978.84;5408721;26;20017;-95
2024/04/15 06:24:30;;;;;;;7.22;4.05;;;;;;;15.84;75.72;98983.63;5411801;26;20003;-95
2024/04/15 06:26:57;;;;;;;9.43;3.85;;;;;;;16.01;76.23;98993.59;5408459;26;20018;-95
2024/04/15 06:29:24;;;;;;;8.55;4.15;;;;;;;15.82;74.35;98918.47;5410462;26;20004;-93
2024/04/15 06:31:50;;;;;;;6.47;3.83;;;;;;;16.17;73.68;98953.50;5408709;26;20070;-93
2024/04/15 06:34:21;;;;;;;10.55;3.97;;;;;;;16.21;73.16;98918.41;5421384;26;20014;-94
2024/04/15 06:36:47;;;;;;;9.38;4.00;;;;;;;16.30;72.25;98933.19;5406702;26;20030;-95
2024/04/15 06:39:14;;;;;;;9.27;4.10;;;;;;;16.33;71.77;98938.44;5407937;26;20046;-94
2024/04/15 06:41:40;;;;;;;11.15;4.45;;;;;;;16.50;71.54;98950.16;5407784;26;20018;-95
2024/04/15 06:44:06;;;;;;;8.43;3.95;;;;;;;16.33;71.39;98926.81;5403400;26;20019;-93
2024/04/15 06:46:32;;;;;;;12.80;3.85;;;;;;;16.07;72.25;98872.59;5404415;26;20053;-94
2024/04/15 06:48:58;;;;;;;6.70;3.55;;;;;;;16.78;70.96;98984.59;5403195;26;20057;-94
2024/04/15 06:51:27;;;;;;;7.60;3.55;;;;;;;16.68;71.41;98954.63;5409893;26;20448;-95
2024/04/15 06:53:53;;;;;;;10.65;4.20;;;;;;;16.98;71.35;98989.91;5407477;26;20018;-94
2024/04/15 06:56:19;;;;;;;6.95;3.65;;;;;;;17.12;71.40;98980.25;5413454;26;20008;-94
2024/04/15 06:58:45;;;;;;;8.35;4.47;;;;;;;16.56;69.82;98870.19;5424681;26;20004;-94
2024/04/15 07:01:11;;;;;;;8.93;3.58;;;;;;;17.34;69.58;98982.72;5419029;26;20524;-95
2024/04/15 07:03:37;;;;;;;9.75;4.30;;;;;;;17.41;68.61;98982.34;5423207;26;20012;-94
2024/04/15 07:06:04;;;;;;;10.90;4.25;;;;;;;17.40;68.16;98971.66;5421517;26;20019;-95
2024/04/15 07:08:33;;;;;;;9.55;4.45;;;;;;;17.10;68.09;98897.03;5423189;26;20011;-93
2024/04/15 07:10:59;;;;;;;10.27;4.05;;;;;;;17.75;67.04;98972.50;5429407;26;20008;-93
2024/04/15 07:13:25;;;;;;;7.90;4.00;;;;;;;17.56;66.75;98939.47;5437400;26;20004;-94
2024/04/15 07:15:51;;;;;;;12.52;4.43;;;;;;;17.68;65.94;98946.03;5421551;26;20011;-94
2024/04/15 07:18:17;;;;;;;14.07;4.32;;;;;;;17.44;65.62;98906.91;5420542;26;20362;-95
2024/04/15 07:20:45;;;;;;;8.68;4.47;;;;;;;17.96;66.51;98980.41;5425559;26;20007;-96
2024/04/15 07:23:11;;;;;;;7.30;4.35;;;;;;;17.73;66.98;98931.34;5421723;26;20007;-94
2024/04/15 07:25:39;;;;;;;8.48;4.50;;;;;;;18.12;66.37;98973.22;5421515;26;20018;-95
2024/04/15 07:28:05;;;;;;;10.10;4.47;;;;;;;18.04;66.57;98986.22;5426507;26;20110;-95
2024/04/15 07:30:31;;;;;;;8.43;4.30;;;;;;;18.25;66.16;98994.97;5421404;26;20016;-96
2024/04/15 07:32:57;;;;;;;9.52;4.97;;;;;;;18.45;65.16;98988.47;5422596;26;20434;-93
2024/04/15 07:35:23;;;;;;;10.70;4.40;;;;;;;18.56;65.10;98994.13;5422997;26;20008;-94
2024/04/15 07:37:49;;;;;;;7.90;4.15;;;;;;;18.18;65.07;98918.22;5422987;26;20003;-94
2024/04/15 07:40:15;;;;;;;6.97;4.60;;;;;;;18.62;64.33;98996.47;5428609;26;20085;-95
2024/04/15 07:42:44;;;;;;;6.97;4.63;;;;;;;18.39;64.80;98926.88;5425241;26;20058;-94
2024/04/15 07:45:10;;;;;;;13.35;4.78;;;;;;;18.85;63.76;98988.94;5423624;26;20011;-95
2024/04/15 07:47:36;;;;;;;14.68;5.35;;;;;;;19.04;63.92;98989.63;5419029;26;20007;-95
2024/04/15 07:50:02;;;;;;;9.98;5.03;;;;;;;18.77;61.79;98897.75;5419229;26;20018;-95
2024/04/15 07:52:28;;;;;;;12.85;5.35;;;;;;;19.41;61.59;98997.34;5424746;26;20003;-95
2024/04/15 07:54:54;;;;;;;8.18;4.60;;;;;;;19.23;60.94;98953.47;5426030;26;20018;-91
2024/04/15 07:57:20;;;;;;;7.93;4.75;;;;;;;19.07;60.69;98908.56;5398085;26;20013;-91
2024/04/15 07:59:49;;;;;;;10.07;4.72;;;;;;;19.39;61.75;98957.00;5413277;26;20011;-92
2024/04/15 08:02:15;;;;;;;8.82;4.65;;;;;;;19.60;60.61;98999.81;5396344;26;20047;-92
2024/04/15 08:04:41;;;;;;;9.52;5.07;;;;;;;19.11;61.75;98936.22;5401172;26;20014;-93
2024/04/15 08:07:07;;;;;;;7.75;4.47;;;;;;;19.18;61.81;98958.28;5410097;26;20523;-93
2024/04/15 08:09:33;;;;;;;9.57;4.93;;;;;;;19.23;62.26;98970.53;5407387;26;20337;-93
2024/04/15 08:11:59;;;;;;;11.30;4.88;;;;;;;18.96;62.14;98921.81;5409480;26;20014;-93
2024/04/15 08:14:25;;;;;;;12.30;5.32;;;;;;;19.36;62.33;98983.28;5405962;26;20003;-94
2024/04/15 08:16:54;;;;;;;10.50;5.03;;;;;;;19.29;61.22;98956.69;5406149;26;20815;-94
2024/04/15 08:19:20;;;;;;;13.90;5.60;;;;;;;18.85;61.53;98891.94;5410132;26;20007;-93
2024/04/15 08:21:46;;;;;;;12.82;5.43;;;;;;;18.95;62.21;98982.06;5405266;26;20022;-93
2024/04/15 08:24:12;;;;;;;9.73;4.55;;;;;;;18.77;63.51;98999.25;5401433;26;20003;-96
2024/04/15 08:26:39;;;;;;;12.40;4.72;;;;;;;18.96;63.14;98999.13;5397690;26;20003;-93
2024/04/15 08:29:08;;;;;;;14.23;4.90;;;;;;;19.03;63.56;99004.03;5396715;26;20014;-96
2024/04/15 08:31:37;;;;;;;13.70;4.65;;;;;;;19.09;63.39;98998.31;5397983;26;20003;-93
2024/04/15 08:34:07;;;;;;;12.95;5.03;;;;;;;19.08;62.45;99012.75;5395235;26;19996;-96
2024/04/15 08:36:34;;;;;;;8.98;4.80;;;;;;;18.67;63.06;98950.41;5395130;26;20010;-96
2024/04/15 08:39:00;;;;;;;13.27;5.90;;;;;;;18.50;63.77;98919.09;5397653;26;20018;-96
2024/04/15 08:41:31;;;;;;;14.05;5.18;;;;;;;18.58;63.95;98908.72;5397081;26;19999;-96
2024/04/15 08:44:03;;;;;;;10.65;5.10;;;;;;;19.31;61.80;99010.53;5393339;26;20004;-96
2024/04/15 08:46:37;;;;;;;8.27;4.60;;;;;;;18.70;61.14;98909.00;5387762;26;20013;-95
2024/04/15 08:49:07;;;;;;;16.23;5.95;;;;;;;19.49;61.71;99009.41;5424788;26;20121;-95
2024/04/15 08:51:34;;;;;;;9.25;4.60;;;;;;;19.12;60.66;98943.34;5427524;26;20007;-95
2024/04/15 08:54:03;;;;;;;11.20;4.55;;;;;;;19.73;60.07;99013.47;5429033;26;20006;-94
2024/04/15 08:56:31;;;;;;;11.35;5.18;;;;;;;19.29;58.02;98900.06;5428894;26;20003;-96
2024/04/15 08:58:58;;;;;;;12.45;4.90;;;;;;;19.04;58.96;98946.50;5440183;26;20007;-95
2024/04/15 09:01:25;;;;;;;8.82;4.72;;;;;;;19.78;58.65;99000.56;5421219;26;20018;-96
2024/04/15 09:03:51;;;;;;;7.82;4.38;;;;;;;19.80;56.33;98972.53;5426872;26;20015;-96
2024/04/15 09:06:22;;;;;;;15.85;5.15;;;;;;;20.18;57.73;98993.56;5436538;26;20011;-96
2024/04/15 09:08:50;;;;;;;7.82;4.55;;;;;;;20.55;55.88;98985.81;5426722;26;20018;-96
2024/04/15 09:11:17;;;;;;;10.13;4.82;;;;;;;20.23;54.84;98899.66;5434640;26;20004;-95
2024/04/15 09:13:44;;;;;;;8.77;4.50;;;;;;;20.87;52.88;98991.84;5386621;26;20008;-96
2024/04/15 09:16:13;;;;;;;11.23;4.97;;;;;;;20.31;53.22;98982.84;5398418;26;20003;-96
2024/04/15 09:18:39;;;;;;;9.63;4.35;;;;;;;20.65;52.66;98951.88;5435420;26;20018;-96
2024/04/15 09:21:05;;;;;;;9.70;4.80;;;;;;;21.28;52.00;98984.66;5389664;26;20003;-95
2024/04/15 09:23:34;;;;;;;9.95;5.18;;;;;;;20.92;50.85;98923.97;5385440;26;20040;-95
2024/04/15 09:26:00;;;;;;;;;;;;;;;21.50;51.24;98986.78;5391859;26;20027;-96
2024/04/15 09:28:27;;;;;;;8.75;4.55;;;;;;;20.95;50.51;98875.13;5421380;26;19925;-96
2024/04/15 09:30:54;;;;;;;9.43;4.88;;;;;;;21.87;50.82;98970.72;5408682;26;20015;-96
2024/04/15 09:33:21;;;;;;;8.20;4.55;;;;;;;21.32;49.58;98861.75;5397371;26;20003;-96
2024/04/15 09:35:50;;;;;;;8.43;4.35;;;;;;;21.49;48.78;98880.41;5404671;26;20036;-96
2024/04/15 09:38:21;;;;;;;7.35;4.25;;;;;;;21.67;48.84;98863.84;5421827;26;20007;-96
2024/04/15 09:40:52;;;;;;;9.88;4.13;;;;;;;22.64;49.28;98957.97;5418030;26;20004;-96
2024/04/15 09:43:33;;;;;;;14.38;5.75;;;;;;;22.07;48.72;98861.81;5402745;26;20011;-96
2024/04/15 09:46:02;;;;;;;;;;;;;;;22.90;47.89;98956.03;5401093;26;20070;-96
2024/04/15 09:48:29;;;;;;;9.32;4.93;;;;;;;22.36;48.76;98953.69;5400767;26;19933;-95
2024/04/15 09:51:01;;;;;;;8.00;4.45;;;;;;;21.94;50.67;98904.31;5400934;26;19996;-96
2024/04/15 09:56:31;;;;;;;7.40;4.10;;;;;;;22.06;50.55;98943.19;5402138;26;20004;-96
2024/04/15 09:59:27;;;;;;;7.70;4.03;;;;;;;21.26;49.17;98821.63;5416591;26;20015;-96
2024/04/15 10:34:45;;;;;;;7.35;3.92;;;;;;;23.68;47.23;98883.16;3472614;21;20414;-93
2024/04/15 10:40:47;;;;;;;7.10;4.10;;;;;;;23.74;45.45;98766.78;6132236;21;20002;-96
2024/04/15 10:45:51;;;;;;;6.63;4.20;;;;;;;23.22;48.52;98824.38;5463487;21;20035;-95
2024/04/15 10:48:17;;;;;;;8.15;4.10;;;;;;;23.68;48.78;98847.84;5262434;27;20017;-93
2024/04/15 10:50:43;;;;;;;12.90;4.15;;;;;;;23.76;48.84;98818.28;5267801;27;20022;-94
2024/04/15 10:53:10;;;;;;;10.82;4.57;;;;;;;23.92;48.43;98835.06;5263317;27;20010;-95
2024/04/15 10:55:36;;;;;;;8.55;4.45;;;;;;;23.95;49.13;98836.66;5270630;27;20061;-95
2024/04/15 10:58:09;;;;;;;11.40;4.90;;;;;;;23.98;48.18;98812.84;5272665;27;22624;-95
2024/04/15 11:00:35;;;;;;;7.40;3.60;;;;;;;24.19;48.07;98809.34;5268487;27;20093;-95
2024/04/15 11:03:05;;;;;;;6.97;3.50;;;;;;;24.17;44.06;98776.00;5277448;27;20013;-93
2024/04/15 11:05:32;;;;;;;6.22;3.10;;;;;;;24.05;42.66;98731.72;5280115;27;20007;-92
2024/04/15 11:07:58;;;;;;;5.65;3.05;;;;;;;24.98;40.89;98814.50;5279180;27;20002;-93
2024/04/15 11:10:24;;;;;;;6.10;3.42;;;;;;;24.96;39.35;98795.63;5283811;27;20021;-92
2024/04/15 11:12:52;;;;;;;5.82;2.95;;;;;;;24.91;39.12;98799.72;5282965;27;20017;-94
2024/04/15 11:15:20;;;;;;;6.85;3.30;;;;;;;24.67;38.92;98711.09;5258490;27;20006;-93
2024/04/15 11:17:53;;;;;;;5.68;2.80;;;;;;;24.87;36.23;98687.59;5276578;27;20455;-92
2024/04/15 11:20:23;;;;;;;6.90;3.15;;;;;;;25.12;36.18;98723.53;5263975;27;20006;-92
2024/04/15 11:22:50;;;;;;;5.95;2.92;;;;;;;25.67;36.16;98789.44;5262921;27;20002;-93
2024/04/15 11:25:18;;;;;;;7.20;2.90;;;;;;;25.46;36.18;98726.91;5252272;27;20011;-93
2024/04/15 11:27:46;;;;;;;5.32;3.20;;;;;;;26.14;36.91;98778.03;5265104;27;20010;-94
2024/04/15 11:30:20;;;;;;;6.03;3.05;;;;;;;25.79;37.32;98769.28;5260250;27;20006;-94
2024/04/15 11:32:47;;;;;;;7.57;3.05;;;;;;;25.87;37.34;98763.13;5236363;27;20006;-95
2024/04/15 11:35:18;;;;;;;7.18;3.42;;;;;;;25.60;38.49;98753.72;5273580;27;20455;-95
2024/04/15 11:37:54;;;;;;;4.55;2.95;;;;;;;25.35;37.15;98687.03;5275601;27;20010;-95
2024/04/15 11:40:22;;;;;;;9.63;3.17;;;;;;;25.04;37.38;98680.66;5276256;27;20041;-94
2024/04/15 11:43:12;;;;;;;6.20;3.03;;;;;;;25.70;38.42;98734.72;5274412;27;20080;-95
2024/04/15 11:45:48;;;;;;;5.82;3.08;;;;;;;25.34;37.86;98676.25;5268154;27;20010;-96
2024/04/15 11:48:17;;;;;;;7.88;3.10;;;;;;;25.02;37.60;98629.09;5281753;27;20017;-96
2024/04/15 11:50:44;;;;;;;4.82;2.85;;;;;;;24.84;35.36;98657.09;5271360;27;20017;-95
2024/04/15 11:53:14;;;;;;;6.43;2.63;;;;;;;24.94;35.88;98675.19;5276093;27;20014;-95
2024/04/15 11:55:41;;;;;;;4.53;2.47;;;;;;;24.90;35.49;98626.63;5280568;27;20006;-94
2024/04/15 11:58:08;;;;;;;4.10;2.50;;;;;;;25.58;35.06;98698.53;5296310;27;20018;-95
2024/04/15 12:00:35;;;;;;;5.93;3.25;;;;;;;25.41;35.50;98672.84;5271702;27;20030;-95
2024/04/15 12:03:01;;;;;;;10.63;3.08;;;;;;;25.14;33.50;98627.16;5276118;27;20037;-96
2024/04/15 12:05:27;;;;;;;5.70;3.10;;;;;;;25.04;33.72;98626.25;5259195;27;20038;-95
2024/04/15 12:07:53;;;;;;;3.50;2.50;;;;;;;25.71;34.46;98690.13;5269905;27;20022;-96
2024/04/15 12:10:22;;;;;;;7.70;2.20;;;;;;;25.23;33.35;98584.69;5274919;27;20011;-95
2024/04/15 12:12:52;;;;;;;4.40;2.60;;;;;;;25.55;33.83;98614.44;5281998;27;20010;-95